MRLMSKSP

Guest
Details From MRLM - LIMON INTL
To SKSP - GUSTAVO ROJAS PINILLA
Flight Number -
Tags generated
Created
Modified
Stats Distance 176 nm / 325 km
Max Altitude 17,900 ft / 5,456 m
Waypoints 4
Social Downloads 0
Likes 0
Share VATSIM

Download

Looking for another format? Having issues loading an existing format? Contact us
Advertisement - Login to hide

Notes

Basic altitude profile: - Ascent Rate: 2500ft/min - Ascent Speed: 250kts - Cruise Altitude: 25000ft - Cruise Speed: 350kts - Descent Rate: 1500ft/min - Descent Speed: 250kts Options: - Use NATs: no - Use PACOTS: no - Use low airways: yes - Use high airways: yes

Route

MRLM ANSON B690 PANAT SKSP

ID Type Via Altitude Latitude Longitude Leg Dist Tot Dist Heading (true) Name
O MRLM APT - 0 ft / 0 m 9.95796˚ -83.02201˚ - 0 nm - LIMON INTL
ANSON FIX - 17,900 ft / 5,456 m 10.71122˚ -82.65153˚ 50 nm 50 nm 26° / 26° -
PANAT FIX B690 (AWY-LO) 8,500 ft / 2,591 m 11.98278˚ -82.00806˚ 85 nm 135 nm 26° / 26° -
O SKSP APT - 0 ft / 0 m 12.58359˚ -81.71119˚ 40 nm 175 nm 26° / 26° GUSTAVO ROJAS PINILLA

Altitude Profile

Advertisement - Login to hide

Weather


0- 5 10 15 20 25 30 35+ Temperature / ° C

Clouds and Precipitation
Forecast for 2017-12-14 18:00 UTC. Updated 2 hours ago

Ground ~20,000 ft ~40,000 ft Winds

MRLM

Details ICAO MRLM (LIO)
Name LIMON INTL
Region Costa Rica
Timezone Unknown (UTC+0.0)
Stats Elevation 7 ft / 2 m (AMSL)
Location 9.957959° -83.022006°
Runways 1
Magnetic Variation 2.424° W

METAR

MRLM 141900Z 33007KT CAVOK 28/20 A2986

Decode

TAF

MRLM 141100Z 1412/1512 28007KT 9999 SCT020 TX27/1420Z TN20/1511Z TEMPO 1413/1418 RA BKN020

Decode

Departure Runways

ID Width Length Bearing (true) Bearing (mag) Surface Threshold Offset Overrun Length
14 98 ft / 30 m 5,897 ft / 1,797 m 146.50° 148.92° Asphalt 0 ft / 0 m 0 ft / 0 m
32 98 ft / 30 m 5,897 ft / 1,797 m 326.50° 328.92° Asphalt 0 ft / 0 m 0 ft / 0 m

SKSP

Details ICAO SKSP (ADZ)
Name GUSTAVO ROJAS PINILLA
Region Colombia
Timezone Unknown (UTC+0.0)
Stats Elevation 19 ft / 6 m (AMSL)
Location 12.583595° -81.711191°
Runways 1
Magnetic Variation 3.677° W

METAR

SKSP 141900Z 01007KT 330V050 9999 FEW017 28/24 A2987 WS RWY/06

Decode

TAF

TAF SKSP 141700Z 141818 02010KT 9999 FEW020 SCT080 PROB40 TEMPO 1422/1500 9000 DZ SCT015TCU TEMPO 1510/1513 8000 DZ SCT015TCU BKN070 TX30/1419Z TN25/1511Z

Decode

Destination Runways

ID Width Length Bearing (true) Bearing (mag) Surface Threshold Offset Overrun Length
06 148 ft / 45 m 7,815 ft / 2,382 m 59.54° 63.22° Asphalt 0 ft / 0 m 0 ft / 0 m
24 148 ft / 45 m 7,815 ft / 2,382 m 239.55° 243.23° Asphalt 0 ft / 0 m 180 ft / 55 m